sensor_id;sensor_type;location;lat;lon;timestamp;temperature;humidity
64997;SHT31;51545;51.568;6.998;2023-12-20T00:00:36;7.42;99.99
64997;SHT31;51545;51.568;6.998;2023-12-20T00:03:07;7.45;99.99
64997;SHT31;51545;51.568;6.998;2023-12-20T00:05:34;7.38;99.99
64997;SHT31;51545;51.568;6.998;2023-12-20T00:08:06;7.42;99.99
64997;SHT31;51545;51.568;6.998;2023-12-20T00:10:32;7.34;99.99
64997;SHT31;51545;51.568;6.998;2023-12-20T00:12:58;7.28;99.99
64997;SHT31;51545;51.568;6.998;2023-12-20T00:15:24;7.21;99.99
64997;SHT31;51545;51.568;6.998;2023-12-20T00:17:50;7.16;99.99
64997;SHT31;51545;51.568;6.998;2023-12-20T00:20:16;7.11;99.99
64997;SHT31;51545;51.568;6.998;2023-12-20T00:22:42;7.06;99.99
64997;SHT31;51545;51.568;6.998;2023-12-20T00:25:08;7.06;99.99
64997;SHT31;51545;51.568;6.998;2023-12-20T00:27:34;7.00;99.99
64997;SHT31;51545;51.568;6.998;2023-12-20T00:30:00;7.01;99.99
64997;SHT31;51545;51.568;6.998;2023-12-20T00:32:26;7.03;99.99
64997;SHT31;51545;51.568;6.998;2023-12-20T00:34:51;7.04;99.99
64997;SHT31;51545;51.568;6.998;2023-12-20T00:37:17;7.03;99.99
64997;SHT31;51545;51.568;6.998;2023-12-20T00:39:43;6.97;99.99
64997;SHT31;51545;51.568;6.998;2023-12-20T00:42:09;7.00;99.99
64997;SHT31;51545;51.568;6.998;2023-12-20T00:44:35;7.00;99.99
64997;SHT31;51545;51.568;6.998;2023-12-20T00:47:01;7.07;99.99
64997;SHT31;51545;51.568;6.998;2023-12-20T00:49:27;7.04;99.99
64997;SHT31;51545;51.568;6.998;2023-12-20T00:51:53;7.09;99.99
64997;SHT31;51545;51.568;6.998;2023-12-20T00:54:19;7.03;99.99
64997;SHT31;51545;51.568;6.998;2023-12-20T00:56:44;7.07;99.99
64997;SHT31;51545;51.568;6.998;2023-12-20T00:59:11;7.04;99.99
64997;SHT31;51545;51.568;6.998;2023-12-20T01:01:37;7.03;99.99
64997;SHT31;51545;51.568;6.998;2023-12-20T01:04:04;7.04;99.99
64997;SHT31;51545;51.568;6.998;2023-12-20T01:06:30;7.01;99.99
64997;SHT31;51545;51.568;6.998;2023-12-20T01:08:56;7.01;99.99
64997;SHT31;51545;51.568;6.998;2023-12-20T01:11:22;7.01;99.99
64997;SHT31;51545;51.568;6.998;2023-12-20T01:13:48;7.03;99.99
64997;SHT31;51545;51.568;6.998;2023-12-20T01:16:14;6.99;99.31
64997;SHT31;51545;51.568;6.998;2023-12-20T01:18:40;6.99;98.96
64997;SHT31;51545;51.568;6.998;2023-12-20T01:21:05;6.92;99.05
64997;SHT31;51545;51.568;6.998;2023-12-20T01:23:32;6.92;98.74
64997;SHT31;51545;51.568;6.998;2023-12-20T01:25:58;6.83;98.80
64997;SHT31;51545;51.568;6.998;2023-12-20T01:28:25;6.68;99.06
64997;SHT31;51545;51.568;6.998;2023-12-20T01:30:51;6.64;98.95
64997;SHT31;51545;51.568;6.998;2023-12-20T01:33:18;6.56;99.02
64997;SHT31;51545;51.568;6.998;2023-12-20T01:35:44;6.48;99.20
64997;SHT31;51545;51.568;6.998;2023-12-20T01:38:10;6.44;99.36
64997;SHT31;51545;51.568;6.998;2023-12-20T01:40:36;6.44;99.26
64997;SHT31;51545;51.568;6.998;2023-12-20T01:43:04;6.49;99.35
64997;SHT31;51545;51.568;6.998;2023-12-20T01:45:33;6.52;99.26
64997;SHT31;51545;51.568;6.998;2023-12-20T01:47:59;6.40;99.25
64997;SHT31;51545;51.568;6.998;2023-12-20T01:50:28;6.41;99.22
64997;SHT31;51545;51.568;6.998;2023-12-20T01:52:55;6.42;99.22
64997;SHT31;51545;51.568;6.998;2023-12-20T01:55:30;6.44;98.98
64997;SHT31;51545;51.568;6.998;2023-12-20T01:57:58;6.41;98.94
64997;SHT31;51545;51.568;6.998;2023-12-20T02:00:25;6.33;98.98
64997;SHT31;51545;51.568;6.998;2023-12-20T02:02:53;6.24;99.02
64997;SHT31;51545;51.568;6.998;2023-12-20T02:05:21;6.23;99.15
64997;SHT31;51545;51.568;6.998;2023-12-20T02:07:47;6.27;99.08
64997;SHT31;51545;51.568;6.998;2023-12-20T02:10:13;6.30;99.14
64997;SHT31;51545;51.568;6.998;2023-12-20T02:12:41;6.40;99.08
64997;SHT31;51545;51.568;6.998;2023-12-20T02:15:07;6.41;99.07
64997;SHT31;51545;51.568;6.998;2023-12-20T02:17:33;6.49;98.80
64997;SHT31;51545;51.568;6.998;2023-12-20T02:19:59;6.42;98.95
64997;SHT31;51545;51.568;6.998;2023-12-20T02:22:25;6.44;98.74
64997;SHT31;51545;51.568;6.998;2023-12-20T02:24:51;6.34;98.94
64997;SHT31;51545;51.568;6.998;2023-12-20T02:27:17;6.37;98.89
64997;SHT31;51545;51.568;6.998;2023-12-20T02:29:45;6.40;98.95
64997;SHT31;51545;51.568;6.998;2023-12-20T02:32:13;6.44;98.80
64997;SHT31;51545;51.568;6.998;2023-12-20T02:34:39;6.46;98.73
64997;SHT31;51545;51.568;6.998;2023-12-20T02:37:05;6.46;98.46
64997;SHT31;51545;51.568;6.998;2023-12-20T02:39:31;6.45;98.40
64997;SHT31;51545;51.568;6.998;2023-12-20T02:41:57;6.40;98.51
64997;SHT31;51545;51.568;6.998;2023-12-20T02:44:23;6.26;98.50
64997;SHT31;51545;51.568;6.998;2023-12-20T02:46:49;6.24;98.63
64997;SHT31;51545;51.568;6.998;2023-12-20T02:49:15;6.13;98.80
64997;SHT31;51545;51.568;6.998;2023-12-20T02:51:41;6.09;98.83
64997;SHT31;51545;51.568;6.998;2023-12-20T02:54:07;6.11;98.95
64997;SHT31;51545;51.568;6.998;2023-12-20T02:56:33;6.18;98.92
64997;SHT31;51545;51.568;6.998;2023-12-20T02:58:59;6.20;98.80
64997;SHT31;51545;51.568;6.998;2023-12-20T03:01:26;6.17;98.90
64997;SHT31;51545;51.568;6.998;2023-12-20T03:03:53;6.23;98.85
64997;SHT31;51545;51.568;6.998;2023-12-20T03:06:19;6.18;98.75
64997;SHT31;51545;51.568;6.998;2023-12-20T03:08:45;6.10;98.78
64997;SHT31;51545;51.568;6.998;2023-12-20T03:11:11;6.09;98.70
64997;SHT31;51545;51.568;6.998;2023-12-20T03:13:37;6.20;98.34
64997;SHT31;51545;51.568;6.998;2023-12-20T03:16:10;6.06;98.40
64997;SHT31;51545;51.568;6.998;2023-12-20T03:18:37;5.93;98.67
64997;SHT31;51545;51.568;6.998;2023-12-20T03:21:03;5.99;98.69
64997;SHT31;51545;51.568;6.998;2023-12-20T03:23:30;5.96;98.61
64997;SHT31;51545;51.568;6.998;2023-12-20T03:25:59;5.83;98.64
64997;SHT31;51545;51.568;6.998;2023-12-20T03:28:26;5.78;98.80
64997;SHT31;51545;51.568;6.998;2023-12-20T03:30:52;5.78;98.96
64997;SHT31;51545;51.568;6.998;2023-12-20T03:33:18;5.79;98.98
64997;SHT31;51545;51.568;6.998;2023-12-20T03:35:44;5.68;98.95
64997;SHT31;51545;51.568;6.998;2023-12-20T03:38:10;5.65;98.89
64997;SHT31;51545;51.568;6.998;2023-12-20T03:40:36;5.58;98.94
64997;SHT31;51545;51.568;6.998;2023-12-20T03:43:02;5.50;99.11
64997;SHT31;51545;51.568;6.998;2023-12-20T03:45:28;5.51;99.21
64997;SHT31;51545;51.568;6.998;2023-12-20T03:47:54;5.48;99.27
64997;SHT31;51545;51.568;6.998;2023-12-20T03:50:22;5.50;99.28
64997;SHT31;51545;51.568;6.998;2023-12-20T03:52:48;5.62;99.24
64997;SHT31;51545;51.568;6.998;2023-12-20T03:55:15;5.67;98.97
64997;SHT31;51545;51.568;6.998;2023-12-20T03:57:41;5.69;98.95
64997;SHT31;51545;51.568;6.998;2023-12-20T04:00:07;5.67;98.89
64997;SHT31;51545;51.568;6.998;2023-12-20T04:02:39;5.81;98.76
64997;SHT31;51545;51.568;6.998;2023-12-20T04:05:06;5.74;98.63
64997;SHT31;51545;51.568;6.998;2023-12-20T04:07:33;5.69;98.71
64997;SHT31;51545;51.568;6.998;2023-12-20T04:10:00;5.75;98.59
64997;SHT31;51545;51.568;6.998;2023-12-20T04:12:27;5.79;98.46
64997;SHT31;51545;51.568;6.998;2023-12-20T04:14:53;5.69;98.46
64997;SHT31;51545;51.568;6.998;2023-12-20T04:17:19;5.71;98.48
64997;SHT31;51545;51.568;6.998;2023-12-20T04:19:50;5.77;98.54
64997;SHT31;51545;51.568;6.998;2023-12-20T04:22:17;5.77;98.42
64997;SHT31;51545;51.568;6.998;2023-12-20T04:24:44;5.86;98.11
64997;SHT31;51545;51.568;6.998;2023-12-20T04:27:10;5.82;98.01
64997;SHT31;51545;51.568;6.998;2023-12-20T04:29:37;5.83;97.99
64997;SHT31;51545;51.568;6.998;2023-12-20T04:32:04;5.89;98.21
64997;SHT31;51545;51.568;6.998;2023-12-20T04:34:30;5.96;97.85
64997;SHT31;51545;51.568;6.998;2023-12-20T04:36:56;5.95;97.79
64997;SHT31;51545;51.568;6.998;2023-12-20T04:39:22;5.93;97.89
64997;SHT31;51545;51.568;6.998;2023-12-20T04:41:48;5.95;97.74
64997;SHT31;51545;51.568;6.998;2023-12-20T04:44:15;5.90;97.88
64997;SHT31;51545;51.568;6.998;2023-12-20T04:46:41;5.92;97.98
64997;SHT31;51545;51.568;6.998;2023-12-20T04:49:07;5.95;97.81
64997;SHT31;51545;51.568;6.998;2023-12-20T04:51:33;5.89;97.72
64997;SHT31;51545;51.568;6.998;2023-12-20T04:54:00;5.86;97.65
64997;SHT31;51545;51.568;6.998;2023-12-20T04:56:26;5.82;97.71
64997;SHT31;51545;51.568;6.998;2023-12-20T04:58:52;5.82;97.46
64997;SHT31;51545;51.568;6.998;2023-12-20T05:01:18;5.78;97.85
64997;SHT31;51545;51.568;6.998;2023-12-20T05:03:46;5.77;97.93
64997;SHT31;51545;51.568;6.998;2023-12-20T05:06:12;5.71;97.95
64997;SHT31;51545;51.568;6.998;2023-12-20T05:08:38;5.74;98.13
64997;SHT31;51545;51.568;6.998;2023-12-20T05:11:04;5.72;98.04
64997;SHT31;51545;51.568;6.998;2023-12-20T05:13:30;5.68;98.19
64997;SHT31;51545;51.568;6.998;2023-12-20T05:15:56;5.77;98.02
64997;SHT31;51545;51.568;6.998;2023-12-20T05:18:22;5.79;97.99
64997;SHT31;51545;51.568;6.998;2023-12-20T05:20:49;5.90;97.76
64997;SHT31;51545;51.568;6.998;2023-12-20T05:23:16;5.96;97.56
64997;SHT31;51545;51.568;6.998;2023-12-20T05:25:43;5.96;97.43
64997;SHT31;51545;51.568;6.998;2023-12-20T05:28:09;5.88;97.55
64997;SHT31;51545;51.568;6.998;2023-12-20T05:30:35;5.89;97.58
64997;SHT31;51545;51.568;6.998;2023-12-20T05:33:01;5.86;97.65
64997;SHT31;51545;51.568;6.998;2023-12-20T05:35:27;5.89;97.63
64997;SHT31;51545;51.568;6.998;2023-12-20T05:37:52;5.93;97.57
64997;SHT31;51545;51.568;6.998;2023-12-20T05:40:18;5.95;97.30
64997;SHT31;51545;51.568;6.998;2023-12-20T05:42:44;5.99;97.46
64997;SHT31;51545;51.568;6.998;2023-12-20T05:45:10;5.98;97.41
64997;SHT31;51545;51.568;6.998;2023-12-20T05:47:36;6.06;97.23
64997;SHT31;51545;51.568;6.998;2023-12-20T05:50:02;6.07;97.09
64997;SHT31;51545;51.568;6.998;2023-12-20T05:52:29;6.00;97.19
64997;SHT31;51545;51.568;6.998;2023-12-20T05:54:55;6.03;97.32
64997;SHT31;51545;51.568;6.998;2023-12-20T05:57:26;5.96;97.48
64997;SHT31;51545;51.568;6.998;2023-12-20T05:59:53;6.03;97.57
64997;SHT31;51545;51.568;6.998;2023-12-20T06:02:19;6.00;97.46
64997;SHT31;51545;51.568;6.998;2023-12-20T06:04:45;6.00;97.43
64997;SHT31;51545;51.568;6.998;2023-12-20T06:07:14;5.98;97.57
64997;SHT31;51545;51.568;6.998;2023-12-20T06:09:42;5.99;97.57
64997;SHT31;51545;51.568;6.998;2023-12-20T06:12:08;5.96;97.59
64997;SHT31;51545;51.568;6.998;2023-12-20T06:14:35;5.95;97.77
64997;SHT31;51545;51.568;6.998;2023-12-20T06:17:01;5.96;97.82
64997;SHT31;51545;51.568;6.998;2023-12-20T06:19:27;5.95;97.64
64997;SHT31;51545;51.568;6.998;2023-12-20T06:21:53;5.99;97.70
64997;SHT31;51545;51.568;6.998;2023-12-20T06:24:20;5.96;97.66
64997;SHT31;51545;51.568;6.998;2023-12-20T06:26:47;5.99;97.63
64997;SHT31;51545;51.568;6.998;2023-12-20T06:29:13;6.02;97.74
64997;SHT31;51545;51.568;6.998;2023-12-20T06:31:39;5.95;97.68
64997;SHT31;51545;51.568;6.998;2023-12-20T06:34:05;5.99;97.63
64997;SHT31;51545;51.568;6.998;2023-12-20T06:36:31;6.00;97.54
64997;SHT31;51545;51.568;6.998;2023-12-20T06:38:57;6.00;97.49
64997;SHT31;51545;51.568;6.998;2023-12-20T06:41:23;6.05;97.56
64997;SHT31;51545;51.568;6.998;2023-12-20T06:43:50;6.13;97.30
64997;SHT31;51545;51.568;6.998;2023-12-20T06:46:18;6.11;97.21
64997;SHT31;51545;51.568;6.998;2023-12-20T06:48:44;6.10;97.08
64997;SHT31;51545;51.568;6.998;2023-12-20T06:51:16;6.11;97.29
64997;SHT31;51545;51.568;6.998;2023-12-20T06:53:45;6.17;96.70
64997;SHT31;51545;51.568;6.998;2023-12-20T06:56:11;6.17;96.87
64997;SHT31;51545;51.568;6.998;2023-12-20T06:58:41;6.16;96.73
64997;SHT31;51545;51.568;6.998;2023-12-20T07:01:14;6.17;96.73
64997;SHT31;51545;51.568;6.998;2023-12-20T07:03:41;6.20;96.67
64997;SHT31;51545;51.568;6.998;2023-12-20T07:06:07;6.28;96.44
64997;SHT31;51545;51.568;6.998;2023-12-20T07:08:34;6.21;96.54
64997;SHT31;51545;51.568;6.998;2023-12-20T07:11:00;6.30;96.16
64997;SHT31;51545;51.568;6.998;2023-12-20T07:13:26;6.31;96.04
64997;SHT31;51545;51.568;6.998;2023-12-20T07:15:52;6.41;95.88
64997;SHT31;51545;51.568;6.998;2023-12-20T07:18:19;6.44;95.37
64997;SHT31;51545;51.568;6.998;2023-12-20T07:20:46;6.44;95.27
64997;SHT31;51545;51.568;6.998;2023-12-20T07:23:15;6.42;95.33
64997;SHT31;51545;51.568;6.998;2023-12-20T07:25:42;6.42;95.40
64997;SHT31;51545;51.568;6.998;2023-12-20T07:28:08;6.51;95.04
64997;SHT31;51545;51.568;6.998;2023-12-20T07:30:36;6.54;94.89
64997;SHT31;51545;51.568;6.998;2023-12-20T07:33:03;6.52;95.21
64997;SHT31;51545;51.568;6.998;2023-12-20T07:35:33;6.54;95.08
64997;SHT31;51545;51.568;6.998;2023-12-20T07:38:00;6.56;94.92
64997;SHT31;51545;51.568;6.998;2023-12-20T07:40:29;6.62;94.70
64997;SHT31;51545;51.568;6.998;2023-12-20T07:42:56;6.59;94.81
64997;SHT31;51545;51.568;6.998;2023-12-20T07:45:25;6.58;94.92
64997;SHT31;51545;51.568;6.998;2023-12-20T07:47:53;6.58;94.96
64997;SHT31;51545;51.568;6.998;2023-12-20T07:50:21;6.55;95.08
64997;SHT31;51545;51.568;6.998;2023-12-20T07:52:48;6.56;95.06
64997;SHT31;51545;51.568;6.998;2023-12-20T07:55:16;6.56;94.73
64997;SHT31;51545;51.568;6.998;2023-12-20T07:57:43;6.54;94.97
64997;SHT31;51545;51.568;6.998;2023-12-20T08:00:10;6.67;94.36
64997;SHT31;51545;51.568;6.998;2023-12-20T08:02:37;6.59;94.54
64997;SHT31;51545;51.568;6.998;2023-12-20T08:05:05;6.58;94.93
64997;SHT31;51545;51.568;6.998;2023-12-20T08:07:33;6.55;94.77
64997;SHT31;51545;51.568;6.998;2023-12-20T08:10:00;6.58;94.93
64997;SHT31;51545;51.568;6.998;2023-12-20T08:12:26;6.58;94.64
64997;SHT31;51545;51.568;6.998;2023-12-20T08:14:53;6.61;94.76
64997;SHT31;51545;51.568;6.998;2023-12-20T08:17:20;6.62;94.57
64997;SHT31;51545;51.568;6.998;2023-12-20T08:19:46;6.61;94.67
64997;SHT31;51545;51.568;6.998;2023-12-20T08:22:11;6.73;94.07
64997;SHT31;51545;51.568;6.998;2023-12-20T08:24:37;6.71;94.23
64997;SHT31;51545;51.568;6.998;2023-12-20T08:27:04;6.79;94.00
64997;SHT31;51545;51.568;6.998;2023-12-20T08:29:30;6.71;94.15
64997;SHT31;51545;51.568;6.998;2023-12-20T08:31:56;6.68;94.27
64997;SHT31;51545;51.568;6.998;2023-12-20T08:34:22;6.68;94.24
64997;SHT31;51545;51.568;6.998;2023-12-20T08:36:50;6.68;94.11
64997;SHT31;51545;51.568;6.998;2023-12-20T08:39:17;6.80;93.78
64997;SHT31;51545;51.568;6.998;2023-12-20T08:41:43;6.78;93.64
64997;SHT31;51545;51.568;6.998;2023-12-20T08:44:09;6.78;93.81
64997;SHT31;51545;51.568;6.998;2023-12-20T08:46:35;6.73;93.87
64997;SHT31;51545;51.568;6.998;2023-12-20T08:49:02;6.76;93.61
64997;SHT31;51545;51.568;6.998;2023-12-20T08:51:28;6.76;93.46
64997;SHT31;51545;51.568;6.998;2023-12-20T08:53:54;6.82;93.67
64997;SHT31;51545;51.568;6.998;2023-12-20T08:56:20;6.80;93.49
64997;SHT31;51545;51.568;6.998;2023-12-20T08:58:46;6.89;93.23
64997;SHT31;51545;51.568;6.998;2023-12-20T09:01:13;6.85;93.14
64997;SHT31;51545;51.568;6.998;2023-12-20T09:03:39;6.75;93.53
64997;SHT31;51545;51.568;6.998;2023-12-20T09:06:06;6.79;93.40
64997;SHT31;51545;51.568;6.998;2023-12-20T09:08:32;6.85;93.14
64997;SHT31;51545;51.568;6.998;2023-12-20T09:10:59;6.80;93.32
64997;SHT31;51545;51.568;6.998;2023-12-20T09:13:26;6.83;93.39
64997;SHT31;51545;51.568;6.998;2023-12-20T09:15:57;6.79;93.13
64997;SHT31;51545;51.568;6.998;2023-12-20T09:18:23;6.80;93.07
64997;SHT31;51545;51.568;6.998;2023-12-20T09:20:49;6.78;93.17
64997;SHT31;51545;51.568;6.998;2023-12-20T09:23:15;6.79;93.23
64997;SHT31;51545;51.568;6.998;2023-12-20T09:25:42;6.82;93.11
64997;SHT31;51545;51.568;6.998;2023-12-20T09:28:08;6.80;93.09
64997;SHT31;51545;51.568;6.998;2023-12-20T09:30:34;6.83;93.19
64997;SHT31;51545;51.568;6.998;2023-12-20T09:33:05;6.82;93.31
64997;SHT31;51545;51.568;6.998;2023-12-20T09:35:33;6.88;93.09
64997;SHT31;51545;51.568;6.998;2023-12-20T09:37:59;6.89;92.79
64997;SHT31;51545;51.568;6.998;2023-12-20T09:40:25;6.89;92.82
64997;SHT31;51545;51.568;6.998;2023-12-20T09:43:14;6.97;92.55
64997;SHT31;51545;51.568;6.998;2023-12-20T09:45:41;6.99;92.61
64997;SHT31;51545;51.568;6.998;2023-12-20T09:48:11;6.97;92.64
64997;SHT31;51545;51.568;6.998;2023-12-20T09:50:37;7.01;92.49
64997;SHT31;51545;51.568;6.998;2023-12-20T09:53:03;7.01;92.53
64997;SHT31;51545;51.568;6.998;2023-12-20T09:55:34;7.06;92.75
64997;SHT31;51545;51.568;6.998;2023-12-20T09:58:02;7.07;92.56
64997;SHT31;51545;51.568;6.998;2023-12-20T10:00:28;7.10;92.34
64997;SHT31;51545;51.568;6.998;2023-12-20T10:02:57;7.11;92.38
64997;SHT31;51545;51.568;6.998;2023-12-20T10:05:27;7.14;92.59
64997;SHT31;51545;51.568;6.998;2023-12-20T10:07:54;7.21;92.32
64997;SHT31;51545;51.568;6.998;2023-12-20T10:10:20;7.20;92.60
64997;SHT31;51545;51.568;6.998;2023-12-20T10:13:02;7.14;92.68
64997;SHT31;51545;51.568;6.998;2023-12-20T10:15:29;7.13;93.67
64997;SHT31;51545;51.568;6.998;2023-12-20T10:17:57;6.99;94.81
64997;SHT31;51545;51.568;6.998;2023-12-20T10:20:24;6.92;94.91
64997;SHT31;51545;51.568;6.998;2023-12-20T10:22:51;6.93;94.92
64997;SHT31;51545;51.568;6.998;2023-12-20T10:25:20;6.97;94.97
64997;SHT31;51545;51.568;6.998;2023-12-20T10:27:46;6.93;94.70
64997;SHT31;51545;51.568;6.998;2023-12-20T10:30:13;6.93;94.46
64997;SHT31;51545;51.568;6.998;2023-12-20T10:32:40;6.92;94.54
64997;SHT31;51545;51.568;6.998;2023-12-20T10:35:06;7.04;94.47
64997;SHT31;51545;51.568;6.998;2023-12-20T10:37:37;7.03;94.07
64997;SHT31;51545;51.568;6.998;2023-12-20T10:40:04;7.10;93.64
64997;SHT31;51545;51.568;6.998;2023-12-20T10:42:32;7.13;93.48
64997;SHT31;51545;51.568;6.998;2023-12-20T10:45:02;7.09;93.68
64997;SHT31;51545;51.568;6.998;2023-12-20T10:47:29;7.06;94.04
64997;SHT31;51545;51.568;6.998;2023-12-20T10:49:57;6.99;94.23
64997;SHT31;51545;51.568;6.998;2023-12-20T10:52:25;7.10;94.23
64997;SHT31;51545;51.568;6.998;2023-12-20T10:54:54;7.10;93.63
64997;SHT31;51545;51.568;6.998;2023-12-20T10:57:20;7.17;93.59
64997;SHT31;51545;51.568;6.998;2023-12-20T10:59:47;7.27;93.24
64997;SHT31;51545;51.568;6.998;2023-12-20T11:02:18;7.34;92.89
64997;SHT31;51545;51.568;6.998;2023-12-20T11:04:46;7.46;92.91
64997;SHT31;51545;51.568;6.998;2023-12-20T11:07:23;7.52;92.73
64997;SHT31;51545;51.568;6.998;2023-12-20T11:10:02;7.45;92.48
64997;SHT31;51545;51.568;6.998;2023-12-20T11:12:54;7.45;93.07
64997;SHT31;51545;51.568;6.998;2023-12-20T11:15:25;7.35;93.40
64997;SHT31;51545;51.568;6.998;2023-12-20T11:17:57;7.27;93.79
64997;SHT31;51545;51.568;6.998;2023-12-20T11:20:24;7.18;94.30
64997;SHT31;51545;51.568;6.998;2023-12-20T11:23:00;7.14;94.72
64997;SHT31;51545;51.568;6.998;2023-12-20T11:25:26;7.10;95.21
64997;SHT31;51545;51.568;6.998;2023-12-20T11:28:13;7.09;95.04
64997;SHT31;51545;51.568;6.998;2023-12-20T11:30:49;7.09;95.44
64997;SHT31;51545;51.568;6.998;2023-12-20T11:33:17;7.04;95.98
64997;SHT31;51545;51.568;6.998;2023-12-20T11:35:51;6.99;96.41
64997;SHT31;51545;51.568;6.998;2023-12-20T11:38:19;6.96;96.22
64997;SHT31;51545;51.568;6.998;2023-12-20T11:40:47;6.96;96.48
64997;SHT31;51545;51.568;6.998;2023-12-20T11:43:30;7.01;96.38
64997;SHT31;51545;51.568;6.998;2023-12-20T11:46:07;7.01;95.96
64997;SHT31;51545;51.568;6.998;2023-12-20T11:48:35;7.07;95.84
64997;SHT31;51545;51.568;6.998;2023-12-20T11:51:02;7.10;95.82
64997;SHT31;51545;51.568;6.998;2023-12-20T11:53:40;7.03;96.08
64997;SHT31;51545;51.568;6.998;2023-12-20T11:56:08;7.06;96.15
64997;SHT31;51545;51.568;6.998;2023-12-20T11:58:35;7.07;96.18
64997;SHT31;51545;51.568;6.998;2023-12-20T12:01:01;6.96;96.76
64997;SHT31;51545;51.568;6.998;2023-12-20T12:03:29;6.93;97.08
64997;SHT31;51545;51.568;6.998;2023-12-20T12:05:57;6.95;97.27
64997;SHT31;51545;51.568;6.998;2023-12-20T12:08:23;6.92;97.53
64997;SHT31;51545;51.568;6.998;2023-12-20T12:10:49;6.89;97.75
64997;SHT31;51545;51.568;6.998;2023-12-20T12:13:16;6.92;97.74
64997;SHT31;51545;51.568;6.998;2023-12-20T12:15:42;6.86;98.11
64997;SHT31;51545;51.568;6.998;2023-12-20T12:18:09;6.88;98.10
64997;SHT31;51545;51.568;6.998;2023-12-20T12:20:36;6.90;98.08
64997;SHT31;51545;51.568;6.998;2023-12-20T12:23:04;6.97;97.68
64997;SHT31;51545;51.568;6.998;2023-12-20T12:25:32;7.06;97.71
64997;SHT31;51545;51.568;6.998;2023-12-20T12:28:00;7.06;97.40
64997;SHT31;51545;51.568;6.998;2023-12-20T12:30:27;7.07;97.48
64997;SHT31;51545;51.568;6.998;2023-12-20T12:32:53;7.14;96.44
64997;SHT31;51545;51.568;6.998;2023-12-20T12:35:21;7.11;96.84
64997;SHT31;51545;51.568;6.998;2023-12-20T12:37:47;7.10;96.84
64997;SHT31;51545;51.568;6.998;2023-12-20T12:40:14;7.16;96.75
64997;SHT31;51545;51.568;6.998;2023-12-20T12:42:43;7.13;96.75
64997;SHT31;51545;51.568;6.998;2023-12-20T12:45:11;7.17;96.51
64997;SHT31;51545;51.568;6.998;2023-12-20T12:47:39;7.21;96.91
64997;SHT31;51545;51.568;6.998;2023-12-20T12:50:06;7.28;96.00
64997;SHT31;51545;51.568;6.998;2023-12-20T12:52:32;7.35;95.50
64997;SHT31;51545;51.568;6.998;2023-12-20T12:54:58;7.46;95.31
64997;SHT31;51545;51.568;6.998;2023-12-20T12:57:24;7.54;94.68
64997;SHT31;51545;51.568;6.998;2023-12-20T12:59:50;7.59;94.01
64997;SHT31;51545;51.568;6.998;2023-12-20T13:02:16;7.56;94.58
64997;SHT31;51545;51.568;6.998;2023-12-20T13:04:42;7.59;94.28
64997;SHT31;51545;51.568;6.998;2023-12-20T13:07:09;7.62;94.03
64997;SHT31;51545;51.568;6.998;2023-12-20T13:09:38;7.59;93.87
64997;SHT31;51545;51.568;6.998;2023-12-20T13:12:05;7.65;93.98
64997;SHT31;51545;51.568;6.998;2023-12-20T13:14:33;7.63;93.82
64997;SHT31;51545;51.568;6.998;2023-12-20T13:17:02;7.62;93.96
64997;SHT31;51545;51.568;6.998;2023-12-20T13:19:29;7.78;92.94
64997;SHT31;51545;51.568;6.998;2023-12-20T13:21:56;7.75;92.98
64997;SHT31;51545;51.568;6.998;2023-12-20T13:24:24;7.70;93.53
64997;SHT31;51545;51.568;6.998;2023-12-20T13:26:50;7.63;93.79
64997;SHT31;51545;51.568;6.998;2023-12-20T13:29:16;7.67;93.80
64997;SHT31;51545;51.568;6.998;2023-12-20T13:31:42;7.66;94.13
64997;SHT31;51545;51.568;6.998;2023-12-20T13:34:08;7.59;94.24
64997;SHT31;51545;51.568;6.998;2023-12-20T13:36:34;7.56;94.38
64997;SHT31;51545;51.568;6.998;2023-12-20T13:39:03;7.55;94.42
64997;SHT31;51545;51.568;6.998;2023-12-20T13:41:31;7.52;94.85
64997;SHT31;51545;51.568;6.998;2023-12-20T13:43:57;7.52;94.86
64997;SHT31;51545;51.568;6.998;2023-12-20T13:46:23;7.48;94.93
64997;SHT31;51545;51.568;6.998;2023-12-20T13:48:49;7.54;95.02
64997;SHT31;51545;51.568;6.998;2023-12-20T13:51:15;7.49;95.18
64997;SHT31;51545;51.568;6.998;2023-12-20T13:53:41;7.49;94.90
64997;SHT31;51545;51.568;6.998;2023-12-20T13:56:07;7.51;94.99
64997;SHT31;51545;51.568;6.998;2023-12-20T13:58:33;7.55;95.07
64997;SHT31;51545;51.568;6.998;2023-12-20T14:00:59;7.46;95.16
64997;SHT31;51545;51.568;6.998;2023-12-20T14:03:25;7.46;95.34
64997;SHT31;51545;51.568;6.998;2023-12-20T14:05:51;7.44;95.57
64997;SHT31;51545;51.568;6.998;2023-12-20T14:08:17;7.39;95.75
64997;SHT31;51545;51.568;6.998;2023-12-20T14:10:43;7.35;95.83
64997;SHT31;51545;51.568;6.998;2023-12-20T14:13:09;7.35;95.92
64997;SHT31;51545;51.568;6.998;2023-12-20T14:15:35;7.42;95.75
64997;SHT31;51545;51.568;6.998;2023-12-20T14:18:06;7.39;95.67
64997;SHT31;51545;51.568;6.998;2023-12-20T14:20:34;7.42;95.59
64997;SHT31;51545;51.568;6.998;2023-12-20T14:23:01;7.44;95.37
64997;SHT31;51545;51.568;6.998;2023-12-20T14:25:27;7.39;95.46
64997;SHT31;51545;51.568;6.998;2023-12-20T14:27:53;7.44;95.40
64997;SHT31;51545;51.568;6.998;2023-12-20T14:30:19;7.39;95.28
64997;SHT31;51545;51.568;6.998;2023-12-20T14:32:45;7.39;95.37
64997;SHT31;51545;51.568;6.998;2023-12-20T14:35:13;7.44;95.36
64997;SHT31;51545;51.568;6.998;2023-12-20T14:37:39;7.42;95.20
64997;SHT31;51545;51.568;6.998;2023-12-20T14:40:06;7.48;94.89
64997;SHT31;51545;51.568;6.998;2023-12-20T14:42:40;7.42;95.35
64997;SHT31;51545;51.568;6.998;2023-12-20T14:45:07;7.45;95.30
64997;SHT31;51545;51.568;6.998;2023-12-20T14:47:34;7.42;95.59
64997;SHT31;51545;51.568;6.998;2023-12-20T14:50:04;7.39;95.90
64997;SHT31;51545;51.568;6.998;2023-12-20T14:52:32;7.38;95.90
64997;SHT31;51545;51.568;6.998;2023-12-20T14:55:00;7.32;96.23
64997;SHT31;51545;51.568;6.998;2023-12-20T14:57:28;7.37;96.13
64997;SHT31;51545;51.568;6.998;2023-12-20T14:59:58;7.37;96.11
64997;SHT31;51545;51.568;6.998;2023-12-20T15:02:24;7.35;96.16
64997;SHT31;51545;51.568;6.998;2023-12-20T15:04:50;7.38;96.22
64997;SHT31;51545;51.568;6.998;2023-12-20T15:07:17;7.39;96.19
64997;SHT31;51545;51.568;6.998;2023-12-20T15:09:43;7.35;96.25
64997;SHT31;51545;51.568;6.998;2023-12-20T15:12:13;7.39;96.13
64997;SHT31;51545;51.568;6.998;2023-12-20T15:14:39;7.38;96.33
64997;SHT31;51545;51.568;6.998;2023-12-20T15:17:05;7.32;96.46
64997;SHT31;51545;51.568;6.998;2023-12-20T15:19:31;7.32;96.61
64997;SHT31;51545;51.568;6.998;2023-12-20T15:21:57;7.28;96.68
64997;SHT31;51545;51.568;6.998;2023-12-20T15:24:25;7.30;96.91
64997;SHT31;51545;51.568;6.998;2023-12-20T15:27:07;7.28;97.01
64997;SHT31;51545;51.568;6.998;2023-12-20T15:29:33;7.28;97.02
64997;SHT31;51545;51.568;6.998;2023-12-20T15:31:59;7.30;96.98
64997;SHT31;51545;51.568;6.998;2023-12-20T15:34:25;7.32;96.79
64997;SHT31;51545;51.568;6.998;2023-12-20T15:36:53;7.31;96.92
64997;SHT31;51545;51.568;6.998;2023-12-20T15:39:19;7.34;96.86
64997;SHT31;51545;51.568;6.998;2023-12-20T15:41:45;7.48;96.37
64997;SHT31;51545;51.568;6.998;2023-12-20T15:44:11;7.46;96.29